sensor_id;sensor_type;location;lat;lon;timestamp;pressure;altitude;pressure_sealevel;temperature
70668;BMP280;58242;51.250;-1.118;2023-04-03T00:00:10;101744.94;;;10.74
70668;BMP280;58242;51.250;-1.118;2023-04-03T00:02:35;101752.75;;;10.71
70668;BMP280;58242;51.250;-1.118;2023-04-03T00:05:01;101759.72;;;10.67
70668;BMP280;58242;51.250;-1.118;2023-04-03T00:07:26;101761.09;;;10.64
70668;BMP280;58242;51.250;-1.118;2023-04-03T00:09:51;101764.63;;;10.60
70668;BMP280;58242;51.250;-1.118;2023-04-03T00:12:17;101771.34;;;10.58
70668;BMP280;58242;51.250;-1.118;2023-04-03T00:14:42;101770.81;;;10.56
70668;BMP280;58242;51.250;-1.118;2023-04-03T00:17:07;101771.41;;;10.53
70668;BMP280;58242;51.250;-1.118;2023-04-03T00:19:33;101763.94;;;10.50
70668;BMP280;58242;51.250;-1.118;2023-04-03T00:21:58;101761.84;;;10.47
70668;BMP280;58242;51.250;-1.118;2023-04-03T00:24:24;101763.50;;;10.43
70668;BMP280;58242;51.250;-1.118;2023-04-03T00:26:49;101769.41;;;10.40
70668;BMP280;58242;51.250;-1.118;2023-04-03T00:29:14;101759.25;;;10.37
70668;BMP280;58242;51.250;-1.118;2023-04-03T00:31:40;101761.41;;;10.35
70668;BMP280;58242;51.250;-1.118;2023-04-03T00:34:05;101757.41;;;10.33
70668;BMP280;58242;51.250;-1.118;2023-04-03T00:36:30;101748.91;;;10.31
70668;BMP280;58242;51.250;-1.118;2023-04-03T00:38:56;101756.69;;;10.27
70668;BMP280;58242;51.250;-1.118;2023-04-03T00:41:21;101757.75;;;10.26
70668;BMP280;58242;51.250;-1.118;2023-04-03T00:43:47;101763.66;;;10.24
70668;BMP280;58242;51.250;-1.118;2023-04-03T00:46:12;101758.59;;;10.22
70668;BMP280;58242;51.250;-1.118;2023-04-03T00:48:42;101759.16;;;10.19
70668;BMP280;58242;51.250;-1.118;2023-04-03T00:51:29;101758.13;;;10.15
70668;BMP280;58242;51.250;-1.118;2023-04-03T00:54:01;101754.94;;;10.13
70668;BMP280;58242;51.250;-1.118;2023-04-03T00:56:29;101758.97;;;10.11
70668;BMP280;58242;51.250;-1.118;2023-04-03T00:59:02;101755.25;;;10.07
70668;BMP280;58242;51.250;-1.118;2023-04-03T01:01:29;101763.84;;;10.04
70668;BMP280;58242;51.250;-1.118;2023-04-03T01:03:55;101764.09;;;10.03
70668;BMP280;58242;51.250;-1.118;2023-04-03T01:06:24;101761.72;;;10.01
70668;BMP280;58242;51.250;-1.118;2023-04-03T01:08:51;101763.38;;;9.97
70668;BMP280;58242;51.250;-1.118;2023-04-03T01:11:17;101747.91;;;9.94
70668;BMP280;58242;51.250;-1.118;2023-04-03T01:13:42;101752.72;;;9.92
70668;BMP280;58242;51.250;-1.118;2023-04-03T01:16:08;101761.28;;;9.90
70668;BMP280;58242;51.250;-1.118;2023-04-03T01:18:34;101759.69;;;9.89
70668;BMP280;58242;51.250;-1.118;2023-04-03T01:21:14;101755.72;;;9.86
70668;BMP280;58242;51.250;-1.118;2023-04-03T01:24:08;101756.81;;;9.80
70668;BMP280;58242;51.250;-1.118;2023-04-03T01:26:35;101755.50;;;9.78
70668;BMP280;58242;51.250;-1.118;2023-04-03T01:29:01;101754.19;;;9.75
70668;BMP280;58242;51.250;-1.118;2023-04-03T01:34:17;101752.88;;;9.68
70668;BMP280;58242;51.250;-1.118;2023-04-03T01:36:42;101757.19;;;9.64
70668;BMP280;58242;51.250;-1.118;2023-04-03T01:39:08;101743.59;;;9.61
70668;BMP280;58242;51.250;-1.118;2023-04-03T01:41:33;101749.19;;;9.59
70668;BMP280;58242;51.250;-1.118;2023-04-03T01:43:59;101742.53;;;9.57
70668;BMP280;58242;51.250;-1.118;2023-04-03T01:46:24;101754.56;;;9.55
70668;BMP280;58242;51.250;-1.118;2023-04-03T01:48:50;101747.63;;;9.54
70668;BMP280;58242;51.250;-1.118;2023-04-03T01:51:15;101749.78;;;9.52
70668;BMP280;58242;51.250;-1.118;2023-04-03T01:53:41;101741.22;;;9.50
70668;BMP280;58242;51.250;-1.118;2023-04-03T01:56:07;101746.06;;;9.48
70668;BMP280;58242;51.250;-1.118;2023-04-03T01:58:32;101746.06;;;9.48
70668;BMP280;58242;51.250;-1.118;2023-04-03T02:00:57;101742.09;;;9.45
70668;BMP280;58242;51.250;-1.118;2023-04-03T02:03:23;101745.56;;;9.46
70668;BMP280;58242;51.250;-1.118;2023-04-03T02:05:49;101746.06;;;9.48
70668;BMP280;58242;51.250;-1.118;2023-04-03T02:08:14;101746.56;;;9.50
70668;BMP280;58242;51.250;-1.118;2023-04-03T02:10:41;101742.56;;;9.52
70668;BMP280;58242;51.250;-1.118;2023-04-03T02:13:06;101738.84;;;9.53
70668;BMP280;58242;51.250;-1.118;2023-04-03T02:15:31;101731.09;;;9.52
70668;BMP280;58242;51.250;-1.118;2023-04-03T02:17:57;101737.50;;;9.51
70668;BMP280;58242;51.250;-1.118;2023-04-03T02:20:22;101737.00;;;9.49
70668;BMP280;58242;51.250;-1.118;2023-04-03T02:22:48;101741.22;;;9.50
70668;BMP280;58242;51.250;-1.118;2023-04-03T02:25:13;101735.38;;;9.48
70668;BMP280;58242;51.250;-1.118;2023-04-03T02:27:39;101736.44;;;9.47
70668;BMP280;58242;51.250;-1.118;2023-04-03T02:30:05;101729.81;;;9.44
70668;BMP280;58242;51.250;-1.118;2023-04-03T02:32:31;101734.59;;;9.42
70668;BMP280;58242;51.250;-1.118;2023-04-03T02:34:57;101739.44;;;9.40
70668;BMP280;58242;51.250;-1.118;2023-04-03T02:37:22;101730.13;;;9.38
70668;BMP280;58242;51.250;-1.118;2023-04-03T02:39:47;101734.13;;;9.36
70668;BMP280;58242;51.250;-1.118;2023-04-03T02:42:13;101733.31;;;9.35
70668;BMP280;58242;51.250;-1.118;2023-04-03T02:44:39;101731.75;;;9.34
70668;BMP280;58242;51.250;-1.118;2023-04-03T02:47:04;101734.91;;;9.36
70668;BMP280;58242;51.250;-1.118;2023-04-03T02:49:30;101730.13;;;9.38
70668;BMP280;58242;51.250;-1.118;2023-04-03T02:51:56;101734.09;;;9.40
70668;BMP280;58242;51.250;-1.118;2023-04-03T02:54:21;101730.59;;;9.45
70668;BMP280;58242;51.250;-1.118;2023-04-03T02:56:48;101740.16;;;9.51
70668;BMP280;58242;51.250;-1.118;2023-04-03T02:59:13;101740.41;;;9.54
70668;BMP280;58242;51.250;-1.118;2023-04-03T03:01:39;101735.31;;;9.57
70668;BMP280;58242;51.250;-1.118;2023-04-03T03:04:04;101730.25;;;9.61
70668;BMP280;58242;51.250;-1.118;2023-04-03T03:06:30;101735.81;;;9.64
70668;BMP280;58242;51.250;-1.118;2023-04-03T03:08:55;101734.44;;;9.67
70668;BMP280;58242;51.250;-1.118;2023-04-03T03:11:20;101734.69;;;9.70
70668;BMP280;58242;51.250;-1.118;2023-04-03T03:13:46;101735.50;;;9.75
70668;BMP280;58242;51.250;-1.118;2023-04-03T03:16:11;101731.19;;;9.79
70668;BMP280;58242;51.250;-1.118;2023-04-03T03:18:36;101727.66;;;9.84
70668;BMP280;58242;51.250;-1.118;2023-04-03T03:21:02;101725.53;;;9.86
70668;BMP280;58242;51.250;-1.118;2023-04-03T03:23:30;101726.03;;;9.88
70668;BMP280;58242;51.250;-1.118;2023-04-03T03:25:59;101721.72;;;9.91
70668;BMP280;58242;51.250;-1.118;2023-04-03T03:28:24;101722.25;;;9.93
70668;BMP280;58242;51.250;-1.118;2023-04-03T03:30:50;101725.97;;;9.97
70668;BMP280;58242;51.250;-1.118;2023-04-03T03:33:16;101720.59;;;10.02
70668;BMP280;58242;51.250;-1.118;2023-04-03T03:35:42;101717.84;;;10.07
70668;BMP280;58242;51.250;-1.118;2023-04-03T03:38:08;101722.09;;;10.13
70668;BMP280;58242;51.250;-1.118;2023-04-03T03:40:33;101716.97;;;10.16
70668;BMP280;58242;51.250;-1.118;2023-04-03T03:42:58;101718.28;;;10.19
70668;BMP280;58242;51.250;-1.118;2023-04-03T03:45:24;101725.44;;;10.23
70668;BMP280;58242;51.250;-1.118;2023-04-03T03:47:49;101723.00;;;10.26
70668;BMP280;58242;51.250;-1.118;2023-04-03T03:50:15;101725.91;;;10.30
70668;BMP280;58242;51.250;-1.118;2023-04-03T03:52:40;101725.06;;;10.34
70668;BMP280;58242;51.250;-1.118;2023-04-03T03:55:06;101716.47;;;10.37
70668;BMP280;58242;51.250;-1.118;2023-04-03T03:57:31;101725.59;;;10.36
70668;BMP280;58242;51.250;-1.118;2023-04-03T03:59:57;101730.97;;;10.31
70668;BMP280;58242;51.250;-1.118;2023-04-03T04:02:22;101725.97;;;10.25
70668;BMP280;58242;51.250;-1.118;2023-04-03T04:04:48;101720.44;;;10.17
70668;BMP280;58242;51.250;-1.118;2023-04-03T04:07:13;101717.84;;;10.07
70668;BMP280;58242;51.250;-1.118;2023-04-03T04:09:39;101718.75;;;9.98
70668;BMP280;58242;51.250;-1.118;2023-04-03T04:12:04;101721.22;;;9.90
70668;BMP280;58242;51.250;-1.118;2023-04-03T04:14:29;101714.59;;;9.82
70668;BMP280;58242;51.250;-1.118;2023-04-03T04:16:55;101712.75;;;9.73
70668;BMP280;58242;51.250;-1.118;2023-04-03T04:19:20;101702.66;;;9.65
70668;BMP280;58242;51.250;-1.118;2023-04-03T04:21:45;101712.88;;;9.58
70668;BMP280;58242;51.250;-1.118;2023-04-03T04:24:10;101701.72;;;9.52
70668;BMP280;58242;51.250;-1.118;2023-04-03T04:26:36;101703.38;;;9.43
70668;BMP280;58242;51.250;-1.118;2023-04-03T04:29:01;101706.38;;;9.37
70668;BMP280;58242;51.250;-1.118;2023-04-03T04:31:26;101704.81;;;9.31
70668;BMP280;58242;51.250;-1.118;2023-04-03T04:33:52;101707.50;;;9.26
70668;BMP280;58242;51.250;-1.118;2023-04-03T04:36:18;101702.44;;;9.20
70668;BMP280;58242;51.250;-1.118;2023-04-03T04:38:43;101699.84;;;9.15
70668;BMP280;58242;51.250;-1.118;2023-04-03T04:41:09;101702.78;;;9.08
70668;BMP280;58242;51.250;-1.118;2023-04-03T04:43:34;101703.09;;;9.02
70668;BMP280;58242;51.250;-1.118;2023-04-03T04:46:09;101708.19;;;8.99
70668;BMP280;58242;51.250;-1.118;2023-04-03T04:48:37;101699.69;;;8.92
70668;BMP280;58242;51.250;-1.118;2023-04-03T04:51:03;101694.66;;;8.86
70668;BMP280;58242;51.250;-1.118;2023-04-03T04:53:28;101708.00;;;8.81
70668;BMP280;58242;51.250;-1.118;2023-04-03T04:55:53;101707.22;;;8.75
70668;BMP280;58242;51.250;-1.118;2023-04-03T04:58:19;101700.03;;;8.71
70668;BMP280;58242;51.250;-1.118;2023-04-03T05:00:45;101704.59;;;8.66
70668;BMP280;58242;51.250;-1.118;2023-04-03T05:03:10;101708.59;;;8.63
70668;BMP280;58242;51.250;-1.118;2023-04-03T05:05:36;101710.50;;;8.58
70668;BMP280;58242;51.250;-1.118;2023-04-03T05:08:02;101714.78;;;8.54
70668;BMP280;58242;51.250;-1.118;2023-04-03T05:10:28;101714.50;;;8.51
70668;BMP280;58242;51.250;-1.118;2023-04-03T05:12:53;101713.47;;;8.47
70668;BMP280;58242;51.250;-1.118;2023-04-03T05:15:19;101709.75;;;8.43
70668;BMP280;58242;51.250;-1.118;2023-04-03T05:17:45;101706.03;;;8.39
70668;BMP280;58242;51.250;-1.118;2023-04-03T05:20:11;101711.34;;;8.34
70668;BMP280;58242;51.250;-1.118;2023-04-03T05:22:36;101719.09;;;8.31
70668;BMP280;58242;51.250;-1.118;2023-04-03T05:25:02;101724.16;;;8.27
70668;BMP280;58242;51.250;-1.118;2023-04-03T05:27:27;101720.44;;;8.23
70668;BMP280;58242;51.250;-1.118;2023-04-03T05:29:55;101719.38;;;8.20
70668;BMP280;58242;51.250;-1.118;2023-04-03T05:32:22;101722.59;;;8.17
70668;BMP280;58242;51.250;-1.118;2023-04-03T05:34:47;101729.78;;;8.16
70668;BMP280;58242;51.250;-1.118;2023-04-03T05:37:13;101729.50;;;8.13
70668;BMP280;58242;51.250;-1.118;2023-04-03T05:39:38;101730.81;;;8.10
70668;BMP280;58242;51.250;-1.118;2023-04-03T05:42:06;101723.38;;;8.07
70668;BMP280;58242;51.250;-1.118;2023-04-03T05:44:31;101726.34;;;8.06
70668;BMP280;58242;51.250;-1.118;2023-04-03T05:46:57;101735.38;;;8.05
70668;BMP280;58242;51.250;-1.118;2023-04-03T05:49:22;101731.41;;;8.03
70668;BMP280;58242;51.250;-1.118;2023-04-03T05:51:47;101735.13;;;8.02
70668;BMP280;58242;51.250;-1.118;2023-04-03T05:54:21;101734.31;;;8.01
70668;BMP280;58242;51.250;-1.118;2023-04-03T05:56:48;101731.66;;;8.01
70668;BMP280;58242;51.250;-1.118;2023-04-03T05:59:14;101731.91;;;8.04
70668;BMP280;58242;51.250;-1.118;2023-04-03T06:01:39;101744.94;;;8.11
70668;BMP280;58242;51.250;-1.118;2023-04-03T06:04:05;101742.84;;;8.18
70668;BMP280;58242;51.250;-1.118;2023-04-03T06:06:51;101741.22;;;8.26
70668;BMP280;58242;51.250;-1.118;2023-04-03T06:09:20;101739.59;;;8.35
70668;BMP280;58242;51.250;-1.118;2023-04-03T06:11:46;101746.00;;;8.44
70668;BMP280;58242;51.250;-1.118;2023-04-03T06:14:11;101746.75;;;8.54
70668;BMP280;58242;51.250;-1.118;2023-04-03T06:16:37;101745.91;;;8.63
70668;BMP280;58242;51.250;-1.118;2023-04-03T06:19:04;101745.91;;;8.73
70668;BMP280;58242;51.250;-1.118;2023-04-03T06:21:31;101746.94;;;8.82
70668;BMP280;58242;51.250;-1.118;2023-04-03T06:23:56;101744.22;;;8.91
70668;BMP280;58242;51.250;-1.118;2023-04-03T06:26:21;101745.28;;;9.00
70668;BMP280;58242;51.250;-1.118;2023-04-03T06:28:47;101743.59;;;9.09
70668;BMP280;58242;51.250;-1.118;2023-04-03T06:31:12;101729.69;;;9.17
70668;BMP280;58242;51.250;-1.118;2023-04-03T06:33:38;101732.31;;;9.26
70668;BMP280;58242;51.250;-1.118;2023-04-03T06:36:04;101736.00;;;9.35
70668;BMP280;58242;51.250;-1.118;2023-04-03T06:38:30;101730.59;;;9.45
70668;BMP280;58242;51.250;-1.118;2023-04-03T06:40:56;101730.53;;;9.55
70668;BMP280;58242;51.250;-1.118;2023-04-03T06:43:22;101735.53;;;9.66
70668;BMP280;58242;51.250;-1.118;2023-04-03T06:45:47;101731.47;;;9.78
70668;BMP280;58242;51.250;-1.118;2023-04-03T06:48:12;101736.72;;;9.88
70668;BMP280;58242;51.250;-1.118;2023-04-03T06:50:38;101732.09;;;9.98
70668;BMP280;58242;51.250;-1.118;2023-04-03T06:53:03;101730.38;;;10.11
70668;BMP280;58242;51.250;-1.118;2023-04-03T06:55:29;101733.19;;;10.25
70668;BMP280;58242;51.250;-1.118;2023-04-03T06:57:54;101731.97;;;10.40
70668;BMP280;58242;51.250;-1.118;2023-04-03T07:00:20;101722.63;;;10.60
70668;BMP280;58242;51.250;-1.118;2023-04-03T07:02:46;101723.72;;;10.82
70668;BMP280;58242;51.250;-1.118;2023-04-03T07:05:12;101727.53;;;10.99
70668;BMP280;58242;51.250;-1.118;2023-04-03T07:07:38;101724.66;;;11.14
70668;BMP280;58242;51.250;-1.118;2023-04-03T07:10:05;101722.94;;;11.23
70668;BMP280;58242;51.250;-1.118;2023-04-03T07:12:31;101710.84;;;11.25
70668;BMP280;58242;51.250;-1.118;2023-04-03T07:14:56;101719.13;;;11.28
70668;BMP280;58242;51.250;-1.118;2023-04-03T07:17:22;101724.69;;;11.50
70668;BMP280;58242;51.250;-1.118;2023-04-03T07:19:47;101721.69;;;11.87
70668;BMP280;58242;51.250;-1.118;2023-04-03T07:22:12;101721.41;;;12.20
70668;BMP280;58242;51.250;-1.118;2023-04-03T07:24:38;101723.31;;;12.46
70668;BMP280;58242;51.250;-1.118;2023-04-03T07:27:03;101720.97;;;12.70
70668;BMP280;58242;51.250;-1.118;2023-04-03T07:29:29;101725.56;;;12.96
70668;BMP280;58242;51.250;-1.118;2023-04-03T07:31:55;101718.16;;;13.28
70668;BMP280;58242;51.250;-1.118;2023-04-03T07:34:21;101715.81;;;13.69
70668;BMP280;58242;51.250;-1.118;2023-04-03T07:36:46;101712.44;;;14.20
70668;BMP280;58242;51.250;-1.118;2023-04-03T07:39:12;101710.78;;;14.78
70668;BMP280;58242;51.250;-1.118;2023-04-03T07:41:37;101705.72;;;15.23
70668;BMP280;58242;51.250;-1.118;2023-04-03T07:44:03;101719.06;;;15.60
70668;BMP280;58242;51.250;-1.118;2023-04-03T07:46:29;101711.16;;;15.97
70668;BMP280;58242;51.250;-1.118;2023-04-03T07:48:55;101716.91;;;16.40
70668;BMP280;58242;51.250;-1.118;2023-04-03T07:51:20;101715.09;;;16.69
70668;BMP280;58242;51.250;-1.118;2023-04-03T07:53:46;101718.94;;;16.96
70668;BMP280;58242;51.250;-1.118;2023-04-03T07:56:11;101722.25;;;17.29
70668;BMP280;58242;51.250;-1.118;2023-04-03T07:58:36;101710.88;;;17.76
70668;BMP280;58242;51.250;-1.118;2023-04-03T08:01:02;101711.94;;;18.34
70668;BMP280;58242;51.250;-1.118;2023-04-03T08:03:27;101700.84;;;18.94
70668;BMP280;58242;51.250;-1.118;2023-04-03T08:05:53;101703.50;;;19.52
70668;BMP280;58242;51.250;-1.118;2023-04-03T08:08:20;101696.44;;;20.17
70668;BMP280;58242;51.250;-1.118;2023-04-03T08:10:53;101696.44;;;20.73
70668;BMP280;58242;51.250;-1.118;2023-04-03T08:13:19;101699.47;;;21.32
70668;BMP280;58242;51.250;-1.118;2023-04-03T08:15:45;101688.63;;;21.88
70668;BMP280;58242;51.250;-1.118;2023-04-03T08:18:12;101693.97;;;22.43
70668;BMP280;58242;51.250;-1.118;2023-04-03T08:20:38;101692.19;;;22.94
70668;BMP280;58242;51.250;-1.118;2023-04-03T08:23:05;101696.44;;;23.42
70668;BMP280;58242;51.250;-1.118;2023-04-03T08:25:30;101691.19;;;23.88
70668;BMP280;58242;51.250;-1.118;2023-04-03T08:27:55;101698.41;;;24.35
70668;BMP280;58242;51.250;-1.118;2023-04-03T08:30:21;101707.81;;;24.76
70668;BMP280;58242;51.250;-1.118;2023-04-03T08:32:46;101703.06;;;25.19
70668;BMP280;58242;51.250;-1.118;2023-04-03T08:35:12;101696.22;;;25.52
70668;BMP280;58242;51.250;-1.118;2023-04-03T08:37:39;101698.00;;;25.83
70668;BMP280;58242;51.250;-1.118;2023-04-03T08:40:06;101692.22;;;26.12
70668;BMP280;58242;51.250;-1.118;2023-04-03T08:45:46;101699.41;;;26.77
70668;BMP280;58242;51.250;-1.118;2023-04-03T08:50:43;101697.00;;;27.47
70668;BMP280;58242;51.250;-1.118;2023-04-03T08:53:25;101700.38;;;27.85
70668;BMP280;58242;51.250;-1.118;2023-04-03T08:55:54;101695.97;;;28.15
70668;BMP280;58242;51.250;-1.118;2023-04-03T08:58:22;101693.75;;;28.49
70668;BMP280;58242;51.250;-1.118;2023-04-03T09:01:18;101694.78;;;28.76
70668;BMP280;58242;51.250;-1.118;2023-04-03T09:03:44;101694.91;;;29.05
70668;BMP280;58242;51.250;-1.118;2023-04-03T09:09:06;101686.72;;;29.70
70668;BMP280;58242;51.250;-1.118;2023-04-03T09:16:58;101699.66;;;30.09
70668;BMP280;58242;51.250;-1.118;2023-04-03T09:22:07;101695.38;;;30.59
70668;BMP280;58242;51.250;-1.118;2023-04-03T09:24:36;101682.41;;;30.57
70668;BMP280;58242;51.250;-1.118;2023-04-03T09:27:09;101682.78;;;30.58
70668;BMP280;58242;51.250;-1.118;2023-04-03T09:29:39;101690.00;;;30.75
70668;BMP280;58242;51.250;-1.118;2023-04-03T09:32:32;101681.63;;;31.04
70668;BMP280;58242;51.250;-1.118;2023-04-03T09:35:01;101686.13;;;31.40
70668;BMP280;58242;51.250;-1.118;2023-04-03T09:37:43;101694.19;;;31.50
70668;BMP280;58242;51.250;-1.118;2023-04-03T09:40:31;101697.88;;;31.43
70668;BMP280;58242;51.250;-1.118;2023-04-03T09:43:02;101679.69;;;31.24
70668;BMP280;58242;51.250;-1.118;2023-04-03T09:45:35;101671.09;;;31.18
70668;BMP280;58242;51.250;-1.118;2023-04-03T09:48:15;101676.41;;;31.28
70668;BMP280;58242;51.250;-1.118;2023-04-03T09:53:38;101680.09;;;30.77
70668;BMP280;58242;51.250;-1.118;2023-04-03T09:56:28;101679.59;;;30.60
70668;BMP280;58242;51.250;-1.118;2023-04-03T10:01:32;101672.56;;;30.56
70668;BMP280;58242;51.250;-1.118;2023-04-03T10:04:15;101676.47;;;30.32
70668;BMP280;58242;51.250;-1.118;2023-04-03T10:06:45;101670.78;;;30.42
70668;BMP280;58242;51.250;-1.118;2023-04-03T10:14:24;101676.81;;;29.76
70668;BMP280;58242;51.250;-1.118;2023-04-03T10:20:06;101678.25;;;30.16
70668;BMP280;58242;51.250;-1.118;2023-04-03T10:25:28;101682.91;;;30.74
70668;BMP280;58242;51.250;-1.118;2023-04-03T10:28:06;101677.53;;;31.12
70668;BMP280;58242;51.250;-1.118;2023-04-03T10:30:37;101662.44;;;31.58
70668;BMP280;58242;51.250;-1.118;2023-04-03T10:38:31;101661.63;;;30.97
70668;BMP280;58242;51.250;-1.118;2023-04-03T10:41:12;101659.00;;;30.90
70668;BMP280;58242;51.250;-1.118;2023-04-03T10:43:59;101642.66;;;31.18
70668;BMP280;58242;51.250;-1.118;2023-04-03T10:46:57;101643.56;;;31.53
70668;BMP280;58242;51.250;-1.118;2023-04-03T10:52:21;101637.00;;;31.85
70668;BMP280;58242;51.250;-1.118;2023-04-03T10:55:09;101643.78;;;31.99
70668;BMP280;58242;51.250;-1.118;2023-04-03T10:57:39;101644.09;;;32.01
70668;BMP280;58242;51.250;-1.118;2023-04-03T11:00:13;101647.25;;;32.03
70668;BMP280;58242;51.250;-1.118;2023-04-03T11:02:48;101645.03;;;32.29
70668;BMP280;58242;51.250;-1.118;2023-04-03T11:05:49;101650.69;;;32.57
70668;BMP280;58242;51.250;-1.118;2023-04-03T11:10:58;101643.59;;;32.87
70668;BMP280;58242;51.250;-1.118;2023-04-03T11:13:50;101647.91;;;33.04
70668;BMP280;58242;51.250;-1.118;2023-04-03T11:16:25;101648.13;;;33.25
70668;BMP280;58242;51.250;-1.118;2023-04-03T11:19:01;101641.19;;;33.17
70668;BMP280;58242;51.250;-1.118;2023-04-03T11:21:33;101644.72;;;32.43
70668;BMP280;58242;51.250;-1.118;2023-04-03T11:24:03;101642.41;;;31.31
70668;BMP280;58242;51.250;-1.118;2023-04-03T11:26:31;101638.91;;;30.41
70668;BMP280;58242;51.250;-1.118;2023-04-03T11:29:07;101631.34;;;29.90
70668;BMP280;58242;51.250;-1.118;2023-04-03T11:34:26;101634.13;;;30.42
70668;BMP280;58242;51.250;-1.118;2023-04-03T11:36:59;101625.28;;;30.02
70668;BMP280;58242;51.250;-1.118;2023-04-03T11:39:29;101633.41;;;29.15
70668;BMP280;58242;51.250;-1.118;2023-04-03T11:42:13;101624.22;;;28.42
70668;BMP280;58242;51.250;-1.118;2023-04-03T11:44:40;101622.09;;;28.10
70668;BMP280;58242;51.250;-1.118;2023-04-03T11:47:06;101619.22;;;27.61
70668;BMP280;58242;51.250;-1.118;2023-04-03T11:57:45;101613.94;;;26.48
70668;BMP280;58242;51.250;-1.118;2023-04-03T12:13:42;101593.56;;;26.56
70668;BMP280;58242;51.250;-1.118;2023-04-03T12:16:31;101589.50;;;27.32
70668;BMP280;58242;51.250;-1.118;2023-04-03T12:27:09;101562.00;;;30.62
70668;BMP280;58242;51.250;-1.118;2023-04-03T12:40:58;101557.50;;;31.13
70668;BMP280;58242;51.250;-1.118;2023-04-03T12:46:50;101554.28;;;31.33
70668;BMP280;58242;51.250;-1.118;2023-04-03T12:49:41;101539.03;;;31.63
70668;BMP280;58242;51.250;-1.118;2023-04-03T12:54:54;101540.50;;;32.64
70668;BMP280;58242;51.250;-1.118;2023-04-03T12:57:28;101539.72;;;33.07
70668;BMP280;58242;51.250;-1.118;2023-04-03T12:59:54;101534.19;;;33.35
70668;BMP280;58242;51.250;-1.118;2023-04-03T13:02:26;101539.72;;;33.47
70668;BMP280;58242;51.250;-1.118;2023-04-03T13:04:54;101531.41;;;33.47
70668;BMP280;58242;51.250;-1.118;2023-04-03T13:07:26;101536.09;;;33.50
70668;BMP280;58242;51.250;-1.118;2023-04-03T13:12:33;101516.78;;;33.71
70668;BMP280;58242;51.250;-1.118;2023-04-03T13:15:11;101526.78;;;34.17
70668;BMP280;58242;51.250;-1.118;2023-04-03T13:17:38;101527.00;;;34.35
70668;BMP280;58242;51.250;-1.118;2023-04-03T13:20:33;101523.78;;;34.36
70668;BMP280;58242;51.250;-1.118;2023-04-03T13:23:06;101527.78;;;34.35
70668;BMP280;58242;51.250;-1.118;2023-04-03T13:25:36;101526.00;;;34.41
70668;BMP280;58242;51.250;-1.118;2023-04-03T13:28:07;101518.34;;;34.20
70668;BMP280;58242;51.250;-1.118;2023-04-03T13:30:35;101508.03;;;33.60
70668;BMP280;58242;51.250;-1.118;2023-04-03T13:33:04;101514.91;;;33.56
70668;BMP280;58242;51.250;-1.118;2023-04-03T13:35:38;101505.97;;;33.88
70668;BMP280;58242;51.250;-1.118;2023-04-03T13:40:56;101502.03;;;34.10
70668;BMP280;58242;51.250;-1.118;2023-04-03T13:43:27;101498.25;;;34.04
70668;BMP280;58242;51.250;-1.118;2023-04-03T13:46:04;101494.50;;;33.99
70668;BMP280;58242;51.250;-1.118;2023-04-03T13:51:12;101492.91;;;34.34
70668;BMP280;58242;51.250;-1.118;2023-04-03T13:56:19;101487.56;;;34.39
70668;BMP280;58242;51.250;-1.118;2023-04-03T13:59:05;101482.97;;;34.45
70668;BMP280;58242;51.250;-1.118;2023-04-03T14:04:17;101474.75;;;34.42
70668;BMP280;58242;51.250;-1.118;2023-04-03T14:06:43;101474.59;;;34.24
70668;BMP280;58242;51.250;-1.118;2023-04-03T14:09:08;101474.16;;;34.26
70668;BMP280;58242;51.250;-1.118;2023-04-03T14:11:34;101475.38;;;34.25
70668;BMP280;58242;51.250;-1.118;2023-04-03T14:14:05;101472.47;;;34.16
70668;BMP280;58242;51.250;-1.118;2023-04-03T14:16:34;101458.31;;;33.90
70668;BMP280;58242;51.250;-1.118;2023-04-03T14:19:02;101454.75;;;33.77
70668;BMP280;58242;51.250;-1.118;2023-04-03T14:21:28;101453.66;;;33.63
70668;BMP280;58242;51.250;-1.118;2023-04-03T14:23:53;101452.97;;;33.59
70668;BMP280;58242;51.250;-1.118;2023-04-03T14:26:22;101462.19;;;33.56
70668;BMP280;58242;51.250;-1.118;2023-04-03T14:28:51;101449.66;;;33.39
70668;BMP280;58242;51.250;-1.118;2023-04-03T14:31:18;101447.06;;;33.20
70668;BMP280;58242;51.250;-1.118;2023-04-03T14:33:44;101447.94;;;33.05
70668;BMP280;58242;51.250;-1.118;2023-04-03T14:36:30;101433.97;;;33.09
70668;BMP280;58242;51.250;-1.118;2023-04-03T14:38:56;101430.31;;;33.12
70668;BMP280;58242;51.250;-1.118;2023-04-03T14:41:25;101436.56;;;32.88
70668;BMP280;58242;51.250;-1.118;2023-04-03T14:43:51;101432.34;;;32.56
70668;BMP280;58242;51.250;-1.118;2023-04-03T14:48:44;101432.69;;;32.14
70668;BMP280;58242;51.250;-1.118;2023-04-03T14:51:11;101424.66;;;31.89
70668;BMP280;58242;51.250;-1.118;2023-04-03T14:53:37;101419.97;;;31.55
70668;BMP280;58242;51.250;-1.118;2023-04-03T14:56:10;101418.47;;;31.35
70668;BMP280;58242;51.250;-1.118;2023-04-03T14:58:36;101414.53;;;31.17
70668;BMP280;58242;51.250;-1.118;2023-04-03T15:01:02;101414.56;;;31.13
70668;BMP280;58242;51.250;-1.118;2023-04-03T15:03:27;101409.81;;;31.14
70668;BMP280;58242;51.250;-1.118;2023-04-03T15:05:53;101402.59;;;31.20
70668;BMP280;58242;51.250;-1.118;2023-04-03T15:08:21;101398.97;;;31.23
70668;BMP280;58242;51.250;-1.118;2023-04-03T15:10:48;101390.59;;;31.26
70668;BMP280;58242;51.250;-1.118;2023-04-03T15:13:13;101403.56;;;31.29
70668;BMP280;58242;51.250;-1.118;2023-04-03T15:15:39;101395.19;;;31.17
70668;BMP280;58242;51.250;-1.118;2023-04-03T15:18:05;101400.28;;;30.99
70668;BMP280;58242;51.250;-1.118;2023-04-03T15:20:30;101398.88;;;30.73
70668;BMP280;58242;51.250;-1.118;2023-04-03T15:22:58;101395.56;;;30.43
70668;BMP280;58242;51.250;-1.118;2023-04-03T15:25:26;101393.44;;;30.09
70668;BMP280;58242;51.250;-1.118;2023-04-03T15:27:55;101390.75;;;29.83
70668;BMP280;58242;51.250;-1.118;2023-04-03T15:30:21;101390.78;;;29.57
70668;BMP280;58242;51.250;-1.118;2023-04-03T15:32:47;101388.50;;;29.27
70668;BMP280;58242;51.250;-1.118;2023-04-03T15:35:13;101396.00;;;28.97
70668;BMP280;58242;51.250;-1.118;2023-04-03T15:37:39;101384.97;;;28.68
70668;BMP280;58242;51.250;-1.118;2023-04-03T15:40:05;101391.34;;;28.26
70668;BMP280;58242;51.250;-1.118;2023-04-03T15:42:31;101389.03;;;27.78
70668;BMP280;58242;51.250;-1.118;2023-04-03T15:44:56;101379.56;;;27.33
70668;BMP280;58242;51.250;-1.118;2023-04-03T15:47:21;101381.38;;;26.93